createdAt,value
2022-11-19T00:00:40.747Z,2.74
2022-11-19T00:01:40.762Z,2.72
2022-11-19T00:02:40.776Z,2.72
2022-11-19T00:03:40.796Z,2.77
2022-11-19T00:04:40.810Z,2.75
2022-11-19T00:05:40.828Z,2.81
2022-11-19T00:06:40.843Z,2.71
2022-11-19T00:07:40.912Z,2.81
2022-11-19T00:08:40.880Z,2.69
2022-11-19T00:09:40.891Z,2.72
2022-11-19T00:10:40.909Z,2.66
2022-11-19T00:11:40.927Z,2.75
2022-11-19T00:12:40.944Z,2.71
2022-11-19T00:13:40.961Z,2.61
2022-11-19T00:14:40.977Z,2.66
2022-11-19T00:15:40.992Z,2.60
2022-11-19T00:16:41.007Z,2.71
2022-11-19T00:17:41.026Z,2.61
2022-11-19T00:18:41.049Z,2.61
2022-11-19T00:19:41.063Z,2.63
2022-11-19T00:20:41.077Z,2.59
2022-11-19T00:21:41.093Z,2.63
2022-11-19T00:22:41.116Z,2.59
2022-11-19T00:23:41.132Z,2.64
2022-11-19T00:24:41.154Z,2.64
2022-11-19T00:25:41.163Z,2.53
2022-11-19T00:26:41.175Z,2.52
2022-11-19T00:27:41.194Z,2.57
2022-11-19T00:28:41.209Z,2.53
2022-11-19T00:29:41.229Z,2.46
2022-11-19T00:30:48.196Z,2.52
2022-11-19T00:31:41.260Z,2.56
2022-11-19T00:32:41.274Z,2.49
2022-11-19T00:33:41.291Z,2.57
2022-11-19T00:34:41.314Z,2.45
2022-11-19T00:35:41.331Z,2.56
2022-11-19T00:36:41.344Z,2.59
2022-11-19T00:37:41.364Z,2.56
2022-11-19T00:38:41.374Z,2.49
2022-11-19T00:39:41.392Z,2.46
2022-11-19T00:40:41.407Z,2.53
2022-11-19T00:41:41.426Z,2.46
2022-11-19T00:42:41.441Z,2.53
2022-11-19T00:43:41.458Z,2.45
2022-11-19T00:44:41.474Z,2.49
2022-11-19T00:45:41.490Z,2.49
2022-11-19T00:46:41.506Z,2.42
2022-11-19T00:47:41.530Z,2.46
2022-11-19T00:48:41.543Z,2.45
2022-11-19T00:49:41.557Z,2.48
2022-11-19T00:50:41.574Z,2.46
2022-11-19T00:51:41.589Z,2.46
2022-11-19T00:52:41.613Z,2.56
2022-11-19T00:53:41.629Z,2.53
2022-11-19T00:54:41.638Z,2.48
2022-11-19T00:55:41.656Z,2.46
2022-11-19T00:56:41.671Z,2.49
2022-11-19T00:57:41.695Z,2.45
2022-11-19T00:58:41.709Z,2.45
2022-11-19T00:59:41.725Z,2.59
2022-11-19T01:00:41.740Z,2.49
2022-11-19T01:01:41.836Z,2.56
2022-11-19T01:02:41.778Z,2.56
2022-11-19T01:03:41.787Z,2.61
2022-11-19T01:04:41.804Z,2.59
2022-11-19T01:05:41.822Z,2.56
2022-11-19T01:06:41.837Z,2.57
2022-11-19T01:07:41.855Z,2.57
2022-11-19T01:08:41.872Z,2.56
2022-11-19T01:09:41.889Z,2.63
2022-11-19T01:10:41.905Z,2.64
2022-11-19T01:11:41.940Z,2.54
2022-11-19T01:12:41.937Z,2.63
2022-11-19T01:13:41.954Z,2.61
2022-11-19T01:14:41.969Z,2.57
2022-11-19T01:15:41.988Z,2.60
2022-11-19T01:16:42.009Z,2.59
2022-11-19T01:17:42.022Z,2.59
2022-11-19T01:18:42.069Z,2.71
2022-11-19T01:19:42.054Z,2.59
2022-11-19T01:20:42.127Z,2.61
2022-11-19T01:21:42.090Z,2.57
2022-11-19T01:22:42.105Z,2.64
2022-11-19T01:23:42.121Z,2.54
2022-11-19T01:24:42.156Z,2.60
2022-11-19T01:25:42.155Z,2.59
2022-11-19T01:26:45.706Z,2.61
2022-11-19T01:27:42.188Z,2.59
2022-11-19T01:28:42.207Z,2.57
2022-11-19T01:29:42.221Z,2.57
2022-11-19T01:30:42.233Z,2.56
2022-11-19T01:31:42.250Z,2.57
2022-11-19T01:32:42.277Z,2.54
2022-11-19T01:33:42.302Z,2.57
2022-11-19T01:34:42.300Z,2.54
2022-11-19T01:35:42.319Z,2.52
2022-11-19T01:36:42.337Z,2.53
2022-11-19T01:37:42.354Z,2.53
2022-11-19T01:38:42.374Z,2.57
2022-11-19T01:39:42.385Z,2.48
2022-11-19T01:40:42.403Z,2.54
2022-11-19T01:41:42.419Z,2.64
2022-11-19T01:42:42.437Z,2.49
2022-11-19T01:43:42.454Z,2.52
2022-11-19T01:44:42.470Z,2.54
2022-11-19T01:45:42.485Z,2.59
2022-11-19T01:46:42.500Z,2.46
2022-11-19T01:47:42.519Z,2.56
2022-11-19T01:48:42.536Z,2.57
2022-11-19T01:49:42.552Z,2.54
2022-11-19T01:50:42.583Z,2.59
2022-11-19T01:51:42.591Z,2.49
2022-11-19T01:52:42.601Z,2.54
2022-11-19T01:53:42.618Z,2.54
2022-11-19T01:54:42.635Z,2.57
2022-11-19T01:55:42.652Z,2.49
2022-11-19T01:56:42.681Z,2.43
2022-11-19T01:57:42.686Z,2.45
2022-11-19T01:58:42.700Z,2.52
2022-11-19T01:59:42.717Z,2.49
2022-11-19T02:00:42.731Z,2.52
2022-11-19T02:01:42.795Z,2.52
2022-11-19T02:02:42.767Z,2.52
2022-11-19T02:03:42.784Z,2.42
2022-11-19T02:04:42.807Z,2.61
2022-11-19T02:05:42.820Z,2.52
2022-11-19T02:06:42.831Z,2.56
2022-11-19T02:07:42.856Z,2.48
2022-11-19T02:08:42.865Z,2.48
2022-11-19T02:09:42.884Z,2.52
2022-11-19T02:10:42.898Z,2.49
2022-11-19T02:11:42.916Z,2.57
2022-11-19T02:12:42.936Z,2.46
2022-11-19T02:13:42.960Z,2.45
2022-11-19T02:14:42.964Z,2.52
2022-11-19T02:15:42.990Z,2.49
2022-11-19T02:16:43.002Z,2.49
2022-11-19T02:17:43.020Z,2.48
2022-11-19T02:18:43.033Z,2.56
2022-11-19T02:19:43.049Z,2.52
2022-11-19T02:20:43.093Z,2.48
2022-11-19T02:21:43.082Z,2.48
2022-11-19T02:22:43.096Z,2.49
2022-11-19T02:23:46.175Z,2.52
2022-11-19T02:24:43.132Z,2.52
2022-11-19T02:25:43.149Z,2.48
2022-11-19T02:26:43.163Z,2.52
2022-11-19T02:27:43.181Z,2.54
2022-11-19T02:28:43.195Z,2.49
2022-11-19T02:29:43.214Z,2.48
2022-11-19T02:30:43.242Z,2.46
2022-11-19T02:31:43.246Z,2.46
2022-11-19T02:32:43.265Z,2.54
2022-11-19T02:33:43.282Z,2.49
2022-11-19T02:34:43.302Z,2.46
2022-11-19T02:35:43.312Z,2.56
2022-11-19T02:36:43.332Z,2.53
2022-11-19T02:37:43.350Z,2.46
2022-11-19T02:38:43.358Z,2.42
2022-11-19T02:39:43.379Z,2.48
2022-11-19T02:40:43.390Z,2.45
2022-11-19T02:41:43.419Z,2.42
2022-11-19T02:42:43.427Z,2.48
2022-11-19T02:43:43.444Z,2.39
2022-11-19T02:44:43.459Z,2.39
2022-11-19T02:45:43.480Z,2.45
2022-11-19T02:46:43.493Z,2.43
2022-11-19T02:47:43.510Z,2.49
2022-11-19T02:48:43.528Z,2.42
2022-11-19T02:49:43.548Z,2.42
2022-11-19T02:50:43.558Z,2.41
2022-11-19T02:51:43.580Z,2.35
2022-11-19T02:52:43.592Z,2.34
2022-11-19T02:53:43.610Z,2.31
2022-11-19T02:54:43.628Z,2.45
2022-11-19T02:55:43.640Z,2.45
2022-11-19T02:56:43.660Z,2.43
2022-11-19T02:57:43.674Z,2.28
2022-11-19T02:58:43.688Z,2.31
2022-11-19T02:59:43.716Z,2.36
2022-11-19T03:00:43.723Z,2.39
2022-11-19T03:01:43.795Z,2.31
2022-11-19T03:02:43.755Z,2.36
2022-11-19T03:03:43.771Z,2.36
2022-11-19T03:04:43.788Z,2.28
2022-11-19T03:05:43.807Z,2.27
2022-11-19T03:06:43.821Z,2.25
2022-11-19T03:07:43.836Z,2.27
2022-11-19T03:08:43.855Z,2.28
2022-11-19T03:09:43.870Z,2.35
2022-11-19T03:10:43.885Z,2.36
2022-11-19T03:11:43.903Z,2.36
2022-11-19T03:12:43.920Z,2.35
2022-11-19T03:13:43.941Z,2.36
2022-11-19T03:14:43.949Z,2.31
2022-11-19T03:15:43.977Z,2.36
2022-11-19T03:16:43.987Z,2.38
2022-11-19T03:17:44.001Z,2.34
2022-11-19T03:18:44.025Z,2.31
2022-11-19T03:19:44.041Z,2.36
2022-11-19T03:20:44.063Z,2.39
2022-11-19T03:21:44.069Z,2.38
2022-11-19T03:22:44.083Z,2.38
2022-11-19T03:23:44.104Z,2.31
2022-11-19T03:24:44.120Z,2.24
2022-11-19T03:25:44.137Z,2.27
2022-11-19T03:26:44.150Z,2.41
2022-11-19T03:27:44.167Z,2.31
2022-11-19T03:28:44.185Z,2.34
2022-11-19T03:29:44.198Z,2.25
2022-11-19T03:30:44.213Z,2.27
2022-11-19T03:31:44.235Z,2.28
2022-11-19T03:32:44.252Z,2.18
2022-11-19T03:33:44.264Z,2.28
2022-11-19T03:34:44.282Z,2.27
2022-11-19T03:35:44.296Z,2.23
2022-11-19T03:36:44.312Z,2.28
2022-11-19T03:37:44.333Z,2.28
2022-11-19T03:38:44.344Z,2.25
2022-11-19T03:39:44.363Z,2.18
2022-11-19T03:40:44.377Z,2.21
2022-11-19T03:41:44.394Z,2.23
2022-11-19T03:42:44.425Z,2.21
2022-11-19T03:43:44.428Z,2.24
2022-11-19T03:44:44.450Z,2.21
2022-11-19T03:45:44.461Z,2.21
2022-11-19T03:46:44.474Z,2.21
2022-11-19T03:47:44.490Z,2.21
2022-11-19T03:48:44.509Z,2.18
2022-11-19T03:49:44.525Z,2.18
2022-11-19T03:50:44.539Z,2.14
2022-11-19T03:51:44.565Z,2.09
2022-11-19T03:52:44.580Z,2.10
2022-11-19T03:53:44.587Z,2.17
2022-11-19T03:54:44.607Z,2.09
2022-11-19T03:55:44.622Z,1.98
2022-11-19T03:56:44.641Z,1.98
2022-11-19T03:57:44.654Z,2.02
2022-11-19T03:58:44.684Z,1.90
2022-11-19T03:59:44.688Z,1.90
2022-11-19T04:00:44.703Z,1.83
2022-11-19T04:01:44.743Z,1.83
2022-11-19T04:02:44.735Z,1.80
2022-11-19T04:03:44.749Z,1.77
2022-11-19T04:04:44.770Z,1.76
2022-11-19T04:05:44.783Z,1.66
2022-11-19T04:06:44.799Z,1.65
2022-11-19T04:07:44.813Z,1.69
2022-11-19T04:08:44.832Z,1.66
2022-11-19T04:09:44.846Z,1.59
2022-11-19T04:10:44.861Z,1.54
2022-11-19T04:12:05.891Z,1.55
2022-11-19T04:12:44.893Z,1.55
2022-11-19T04:13:44.911Z,1.55
2022-11-19T04:14:44.931Z,1.52
2022-11-19T04:15:44.940Z,1.52
2022-11-19T04:16:44.966Z,1.51
2022-11-19T04:17:44.974Z,1.47
2022-11-19T04:18:44.999Z,1.45
2022-11-19T04:19:45.004Z,1.47
2022-11-19T04:20:45.020Z,1.40
2022-11-19T04:21:45.036Z,1.44
2022-11-19T04:22:45.051Z,1.37
2022-11-19T04:23:45.066Z,1.41
2022-11-19T04:24:45.087Z,1.34
2022-11-19T04:25:45.111Z,1.40
2022-11-19T04:26:45.113Z,1.36
2022-11-19T04:27:45.146Z,1.41
2022-11-19T04:28:45.143Z,1.34
2022-11-19T04:29:45.159Z,1.36
2022-11-19T04:30:45.174Z,1.36
2022-11-19T04:31:45.189Z,1.23
2022-11-19T04:32:45.202Z,1.23
2022-11-19T04:33:45.226Z,1.22
2022-11-19T04:34:45.235Z,1.24
2022-11-19T04:35:45.250Z,1.24
2022-11-19T04:36:45.265Z,1.26
2022-11-19T04:37:45.284Z,1.15
2022-11-19T04:38:45.301Z,1.12
2022-11-19T04:39:45.314Z,1.16
2022-11-19T04:40:45.330Z,1.11
2022-11-19T04:41:45.345Z,1.22
2022-11-19T04:42:45.357Z,1.04
2022-11-19T04:43:45.375Z,1.09
2022-11-19T04:44:45.393Z,1.08
2022-11-19T04:45:45.408Z,1.11
2022-11-19T04:46:45.419Z,1.08
2022-11-19T04:47:45.437Z,1.04
2022-11-19T04:48:45.455Z,1.04
2022-11-19T04:49:45.466Z,1.06
2022-11-19T04:50:45.480Z,0.96
2022-11-19T04:51:45.499Z,0.97
2022-11-19T04:52:45.524Z,0.90
2022-11-19T04:53:45.531Z,0.91
2022-11-19T04:54:45.553Z,0.98
2022-11-19T04:55:45.561Z,1.02
2022-11-19T04:56:45.570Z,0.94
2022-11-19T04:57:45.590Z,1.02
2022-11-19T04:58:45.606Z,0.94
2022-11-19T04:59:45.671Z,0.97
2022-11-19T05:00:45.640Z,0.98
2022-11-19T05:01:45.692Z,0.97
2022-11-19T05:02:45.665Z,0.84
2022-11-19T05:03:45.684Z,0.90
2022-11-19T05:04:45.695Z,0.80
2022-11-19T05:05:45.717Z,0.78
2022-11-19T05:06:45.727Z,0.78
2022-11-19T05:07:45.743Z,0.87
2022-11-19T05:08:45.760Z,0.78
2022-11-19T05:09:45.782Z,0.80
2022-11-19T05:10:45.790Z,0.70
2022-11-19T05:11:45.807Z,0.73
2022-11-19T05:12:45.822Z,0.75
2022-11-19T05:13:45.836Z,0.76
2022-11-19T05:14:45.851Z,0.78
2022-11-19T05:15:45.867Z,0.76
2022-11-19T05:16:45.880Z,0.79
2022-11-19T05:17:45.910Z,0.75
2022-11-19T05:18:45.910Z,0.79
2022-11-19T05:19:45.930Z,0.78
2022-11-19T05:20:45.938Z,0.70
2022-11-19T05:21:45.959Z,0.69
2022-11-19T05:22:45.968Z,0.65
2022-11-19T05:23:46.038Z,0.69
2022-11-19T05:24:46.001Z,0.76
2022-11-19T05:25:46.017Z,0.70
2022-11-19T05:26:46.031Z,0.69
2022-11-19T05:27:46.054Z,0.66
2022-11-19T05:28:46.071Z,0.72
2022-11-19T05:29:46.079Z,0.73
2022-11-19T05:30:46.092Z,0.69
2022-11-19T05:31:46.108Z,0.60
2022-11-19T05:32:46.124Z,0.62
2022-11-19T05:33:46.141Z,0.50
2022-11-19T05:34:46.148Z,0.60
2022-11-19T05:35:46.169Z,0.57
2022-11-19T05:36:46.184Z,0.65
2022-11-19T05:37:46.196Z,0.69
2022-11-19T05:38:46.212Z,0.68
2022-11-19T05:39:46.224Z,0.69
2022-11-19T05:40:46.244Z,0.68
2022-11-19T05:41:46.258Z,0.66
2022-11-19T05:42:46.275Z,0.65
2022-11-19T05:43:46.286Z,0.61
2022-11-19T05:44:46.304Z,0.61
2022-11-19T05:45:46.321Z,0.57
2022-11-19T05:46:46.333Z,0.60
2022-11-19T05:47:48.754Z,0.57
2022-11-19T05:48:46.365Z,0.61
2022-11-19T05:49:46.378Z,0.60
2022-11-19T05:50:46.391Z,0.58
2022-11-19T05:51:46.406Z,0.57
2022-11-19T05:52:46.422Z,0.57
2022-11-19T05:53:46.465Z,0.51
2022-11-19T05:54:46.451Z,0.53
2022-11-19T05:55:46.465Z,0.50
2022-11-19T05:56:46.492Z,0.41
2022-11-19T05:57:46.498Z,0.46
2022-11-19T05:58:46.510Z,0.39
2022-11-19T05:59:46.528Z,0.39
2022-11-19T06:00:46.542Z,0.33
2022-11-19T06:01:46.557Z,0.44
2022-11-19T06:02:46.630Z,0.31
2022-11-19T06:03:46.587Z,0.35
2022-11-19T06:04:46.601Z,0.35
2022-11-19T06:05:46.631Z,0.33
2022-11-19T06:06:46.628Z,0.38
2022-11-19T06:07:46.646Z,0.31
2022-11-19T06:08:46.662Z,0.38
2022-11-19T06:09:46.676Z,0.31
2022-11-19T06:10:46.688Z,0.24
2022-11-19T06:11:46.706Z,0.39
2022-11-19T06:12:46.732Z,0.32
2022-11-19T06:13:46.731Z,0.32
2022-11-19T06:14:46.747Z,0.35
2022-11-19T06:15:46.763Z,0.23
2022-11-19T06:16:46.781Z,0.23
2022-11-19T06:17:46.794Z,0.26
2022-11-19T06:18:46.851Z,0.23
2022-11-19T06:19:46.833Z,0.23
2022-11-19T06:20:46.844Z,0.26
2022-11-19T06:21:46.853Z,0.14
2022-11-19T06:22:46.868Z,0.15
2022-11-19T06:23:46.881Z,0.11
2022-11-19T06:24:46.896Z,0.14
2022-11-19T06:25:46.912Z,0.13
2022-11-19T06:26:46.926Z,0.07
2022-11-19T06:27:46.943Z,0.10
2022-11-19T06:28:46.956Z,0.13
2022-11-19T06:29:46.974Z,0.04
2022-11-19T06:30:46.990Z,0.10
2022-11-19T06:31:46.999Z,0.13
2022-11-19T06:32:47.016Z,0.03
2022-11-19T06:33:47.030Z,0.04
2022-11-19T06:34:47.040Z,0.11
2022-11-19T06:35:47.071Z,0.13
2022-11-19T06:36:50.507Z,0.04
2022-11-19T06:37:47.089Z,0.03
2022-11-19T06:38:47.103Z,0.08
2022-11-19T06:39:47.119Z,0.03
2022-11-19T06:40:47.131Z,0.03
2022-11-19T06:41:47.147Z,0.03
2022-11-19T06:42:50.789Z,0.02
2022-11-19T06:43:47.176Z,-0.01
2022-11-19T06:44:47.190Z,-0.07
2022-11-19T06:45:47.223Z,-0.03
2022-11-19T06:46:47.219Z,-0.04
2022-11-19T06:47:47.237Z,-0.05
2022-11-19T06:48:47.247Z,-0.05
2022-11-19T06:49:47.263Z,-0.07
2022-11-19T06:50:47.277Z,-0.08
2022-11-19T06:51:47.290Z,-0.04
2022-11-19T06:52:47.306Z,-0.04
2022-11-19T06:53:47.322Z,-0.10
2022-11-19T06:54:47.337Z,-0.10
2022-11-19T06:55:47.364Z,-0.03
2022-11-19T06:56:47.365Z,-0.04
2022-11-19T06:57:47.381Z,-0.07
2022-11-19T06:58:47.394Z,-0.04
2022-11-19T06:59:47.407Z,-0.10
2022-11-19T07:00:47.424Z,-0.07
2022-11-19T07:01:47.635Z,-0.07
2022-11-19T07:02:47.451Z,-0.11
2022-11-19T07:03:47.467Z,-0.11
2022-11-19T07:04:47.479Z,-0.05
2022-11-19T07:05:47.496Z,-0.08
2022-11-19T07:06:47.521Z,-0.08
2022-11-19T07:07:47.526Z,-0.10
2022-11-19T07:08:47.540Z,-0.07
2022-11-19T07:09:47.555Z,-0.04
2022-11-19T07:10:47.573Z,-0.11
2022-11-19T07:11:47.586Z,-0.14
2022-11-19T07:12:47.595Z,-0.15
2022-11-19T07:13:47.610Z,-0.10
2022-11-19T07:14:47.649Z,-0.10
2022-11-19T07:15:47.637Z,-0.05
2022-11-19T07:16:47.654Z,-0.08
2022-11-19T07:17:47.670Z,-0.07
2022-11-19T07:18:47.685Z,-0.10
2022-11-19T07:19:47.698Z,-0.16
2022-11-19T07:20:47.714Z,-0.08
2022-11-19T07:21:47.726Z,-0.08
2022-11-19T07:22:47.743Z,-0.08
2022-11-19T07:23:47.760Z,-0.10
2022-11-19T07:24:47.774Z,-0.14
2022-11-19T07:25:47.786Z,-0.14
2022-11-19T07:26:47.803Z,-0.10
2022-11-19T07:27:47.814Z,-0.11
2022-11-19T07:28:47.827Z,-0.07
2022-11-19T07:29:47.848Z,-0.16
2022-11-19T07:30:47.857Z,-0.16
2022-11-19T07:31:47.872Z,-0.11
2022-11-19T07:32:47.887Z,-0.11
2022-11-19T07:33:47.909Z,-0.10
2022-11-19T07:34:47.923Z,-0.07
2022-11-19T07:35:47.933Z,-0.11
2022-11-19T07:36:47.944Z,-0.11
2022-11-19T07:37:47.961Z,-0.10
2022-11-19T07:38:47.975Z,-0.16
2022-11-19T07:39:47.993Z,-0.08
2022-11-19T07:40:48.004Z,-0.10
2022-11-19T07:41:48.020Z,-0.08
2022-11-19T07:42:48.032Z,-0.05
2022-11-19T07:43:48.058Z,-0.04
2022-11-19T07:44:53.539Z,-0.10
2022-11-19T07:45:48.078Z,-0.11
2022-11-19T07:46:48.091Z,-0.07
2022-11-19T07:47:48.100Z,-0.08
2022-11-19T07:48:48.121Z,-0.07
2022-11-19T07:49:48.132Z,-0.05
2022-11-19T07:50:52.352Z,-0.10
2022-11-19T07:51:48.163Z,-0.07
2022-11-19T07:52:48.190Z,0.02
2022-11-19T07:53:48.193Z,0.00
2022-11-19T07:54:48.217Z,-0.05
2022-11-19T07:55:48.220Z,-0.01
2022-11-19T07:56:48.238Z,0.02
2022-11-19T07:57:48.249Z,0.03
2022-11-19T07:58:48.265Z,0.00
2022-11-19T07:59:48.277Z,0.02
2022-11-19T08:00:48.296Z,0.08
2022-11-19T08:01:48.368Z,0.00
2022-11-19T08:02:48.323Z,0.00
2022-11-19T08:03:52.037Z,0.03
2022-11-19T08:04:48.355Z,0.07
2022-11-19T08:05:48.369Z,0.03
2022-11-19T08:06:48.383Z,0.15
2022-11-19T08:07:48.396Z,0.14
2022-11-19T08:08:48.413Z,0.15
2022-11-19T08:09:48.425Z,0.03
2022-11-19T08:10:48.445Z,0.14
2022-11-19T08:11:48.454Z,0.17
2022-11-19T08:12:48.470Z,0.18
2022-11-19T08:13:48.483Z,0.26
2022-11-19T08:14:48.499Z,0.24
2022-11-19T08:15:48.513Z,0.23
2022-11-19T08:16:48.527Z,0.26
2022-11-19T08:17:48.547Z,0.20
2022-11-19T08:18:48.560Z,0.26
2022-11-19T08:19:48.589Z,0.32
2022-11-19T08:20:48.604Z,0.35
2022-11-19T08:21:48.603Z,0.33
2022-11-19T08:22:48.622Z,0.46
2022-11-19T08:23:48.630Z,0.33
2022-11-19T08:24:48.649Z,0.41
2022-11-19T08:25:48.664Z,0.50
2022-11-19T08:26:48.691Z,0.42
2022-11-19T08:27:48.690Z,0.46
2022-11-19T08:28:48.706Z,0.47
2022-11-19T08:29:48.722Z,0.41
2022-11-19T08:30:48.736Z,0.39
2022-11-19T08:31:48.752Z,0.50
2022-11-19T08:32:48.780Z,0.55
2022-11-19T08:33:48.778Z,0.57
2022-11-19T08:34:48.796Z,0.44
2022-11-19T08:35:48.843Z,0.51
2022-11-19T08:36:48.826Z,0.60
2022-11-19T08:37:48.840Z,0.60
2022-11-19T08:38:48.856Z,0.61
2022-11-19T08:39:48.870Z,0.62
2022-11-19T08:40:48.884Z,0.53
2022-11-19T08:41:48.899Z,0.70
2022-11-19T08:42:48.913Z,0.69
2022-11-19T08:43:48.930Z,0.66
2022-11-19T08:44:48.946Z,0.68
2022-11-19T08:45:48.961Z,0.69
2022-11-19T08:46:48.976Z,0.73
2022-11-19T08:47:48.986Z,0.69
2022-11-19T08:48:49.009Z,0.75
2022-11-19T08:49:49.055Z,0.70
2022-11-19T08:50:49.040Z,0.75
2022-11-19T08:51:49.045Z,0.76
2022-11-19T08:52:49.066Z,0.75
2022-11-19T08:53:49.080Z,0.75
2022-11-19T08:54:49.115Z,0.75
2022-11-19T08:55:49.109Z,0.78
2022-11-19T08:56:49.125Z,0.83
2022-11-19T08:57:49.139Z,0.83
2022-11-19T08:58:49.160Z,0.83
2022-11-19T08:59:49.170Z,0.90
2022-11-19T09:00:49.216Z,0.88
2022-11-19T09:01:49.203Z,0.84
2022-11-19T09:02:49.215Z,0.91
2022-11-19T09:03:49.230Z,0.98
2022-11-19T09:04:49.243Z,0.90
2022-11-19T09:05:49.270Z,0.93
2022-11-19T09:06:49.284Z,1.00
2022-11-19T09:07:49.294Z,0.97
2022-11-19T09:08:49.308Z,1.05
2022-11-19T09:09:49.341Z,1.02
2022-11-19T09:10:49.335Z,1.04
2022-11-19T09:11:49.369Z,1.08
2022-11-19T09:12:49.368Z,1.09
2022-11-19T09:13:49.386Z,1.06
2022-11-19T09:14:49.398Z,1.12
2022-11-19T09:15:49.414Z,1.12
2022-11-19T09:16:49.431Z,1.18
2022-11-19T09:17:49.450Z,1.26
2022-11-19T09:18:49.461Z,1.24
2022-11-19T09:19:49.480Z,1.27
2022-11-19T09:20:49.498Z,1.26
2022-11-19T09:21:49.506Z,1.26
2022-11-19T09:22:49.521Z,1.29
2022-11-19T09:23:49.538Z,1.26
2022-11-19T09:24:49.555Z,1.32
2022-11-19T09:25:49.565Z,1.37
2022-11-19T09:26:52.825Z,1.23
2022-11-19T09:27:49.599Z,1.32
2022-11-19T09:28:49.614Z,1.29
2022-11-19T09:29:49.635Z,1.32
2022-11-19T09:30:49.646Z,1.26
2022-11-19T09:31:49.663Z,1.36
2022-11-19T09:32:49.694Z,1.45
2022-11-19T09:33:49.692Z,1.44
2022-11-19T09:34:49.707Z,1.27
2022-11-19T09:35:49.727Z,1.40
2022-11-19T09:36:49.736Z,1.40
2022-11-19T09:37:49.756Z,1.47
2022-11-19T09:38:49.772Z,1.37
2022-11-19T09:39:56.942Z,1.45
2022-11-19T09:41:43.256Z,1.47
2022-11-19T09:42:42.724Z,1.50
2022-11-19T09:44:46.714Z,1.50
2022-11-19T09:45:46.728Z,1.42
2022-11-19T09:47:51.207Z,1.48
2022-11-19T09:48:50.758Z,1.50
2022-11-19T09:50:54.728Z,1.60
2022-11-19T09:51:54.735Z,1.58
2022-11-19T09:53:59.224Z,1.54
2022-11-19T09:54:58.740Z,1.52
2022-11-19T09:57:04.532Z,1.63
2022-11-19T09:58:02.757Z,1.62
2022-11-19T10:00:07.743Z,1.65
2022-11-19T10:01:06.749Z,1.63
2022-11-19T10:03:10.790Z,1.65
2022-11-19T10:04:10.761Z,1.60
2022-11-19T10:06:15.250Z,1.68
2022-11-19T10:07:14.771Z,1.65
2022-11-19T10:09:18.763Z,1.84
2022-11-19T10:10:18.772Z,1.87
2022-11-19T10:12:23.253Z,1.90
2022-11-19T10:13:22.766Z,1.90
2022-11-19T10:15:26.776Z,2.00
2022-11-19T10:16:26.782Z,1.98
2022-11-19T10:18:32.265Z,1.95
2022-11-19T10:19:31.835Z,1.98
2022-11-19T10:21:24.714Z,1.99
2022-11-19T10:22:24.723Z,2.05
2022-11-19T10:24:29.199Z,2.10
2022-11-19T10:25:28.719Z,2.16
2022-11-19T10:27:32.724Z,2.16
2022-11-19T10:28:32.727Z,2.21
2022-11-19T10:30:37.215Z,2.27
2022-11-19T10:31:36.737Z,2.30
2022-11-19T10:33:40.742Z,2.41
2022-11-19T10:34:40.746Z,2.36
2022-11-19T10:36:45.245Z,2.39
2022-11-19T10:37:44.773Z,2.39
2022-11-19T10:39:48.773Z,2.41
2022-11-19T10:40:48.775Z,2.42
2022-11-19T10:42:53.257Z,2.46
2022-11-19T10:43:52.798Z,2.48
2022-11-19T10:45:57.289Z,2.49
2022-11-19T10:46:57.294Z,2.46
2022-11-19T10:47:57.312Z,2.46
2022-11-19T10:48:57.329Z,2.49
2022-11-19T10:49:57.347Z,2.46
2022-11-19T10:50:57.358Z,2.54
2022-11-19T10:51:57.377Z,2.49
2022-11-19T10:52:57.389Z,2.45
2022-11-19T10:53:57.407Z,2.52
2022-11-19T10:54:57.425Z,2.57
2022-11-19T10:55:57.441Z,2.63
2022-11-19T10:56:57.453Z,2.54
2022-11-19T10:57:57.473Z,2.60
2022-11-19T10:58:57.496Z,2.61
2022-11-19T10:59:57.510Z,2.72
2022-11-19T11:00:57.591Z,2.64
2022-11-19T11:01:57.549Z,2.77
2022-11-19T11:03:04.713Z,2.81
2022-11-19T11:05:02.037Z,2.78
2022-11-19T11:06:01.563Z,2.79
2022-11-19T11:08:05.564Z,2.87
2022-11-19T11:09:05.564Z,2.92
2022-11-19T11:10:59.534Z,2.95
2022-11-19T11:11:58.993Z,2.93
2022-11-19T11:12:59.028Z,2.89
2022-11-19T11:13:59.025Z,2.89
2022-11-19T11:14:59.042Z,2.84
2022-11-19T11:15:59.062Z,2.96
2022-11-19T11:16:59.072Z,2.96
2022-11-19T11:17:59.093Z,3.06
2022-11-19T11:18:59.107Z,3.00
2022-11-19T11:19:59.123Z,3.00
2022-11-19T11:20:59.142Z,3.06
2022-11-19T11:21:59.158Z,3.11
2022-11-19T11:22:59.174Z,3.18
2022-11-19T11:23:59.190Z,3.18
2022-11-19T11:25:02.811Z,3.17
2022-11-19T11:25:59.221Z,3.20
2022-11-19T11:26:59.242Z,3.13
2022-11-19T11:27:59.259Z,3.15
2022-11-19T11:28:59.276Z,3.28
2022-11-19T11:29:59.294Z,3.31
2022-11-19T11:30:59.308Z,3.31
2022-11-19T11:31:59.352Z,3.29
2022-11-19T11:32:59.342Z,3.29
2022-11-19T11:33:59.361Z,3.29
2022-11-19T11:35:03.500Z,3.31
2022-11-19T11:35:59.391Z,3.48
2022-11-19T11:36:59.411Z,3.40
2022-11-19T11:37:59.431Z,3.52
2022-11-19T11:38:59.444Z,3.47
2022-11-19T11:39:59.463Z,3.51
2022-11-19T11:41:30.030Z,3.52
2022-11-19T11:42:05.939Z,3.50
2022-11-19T11:42:59.510Z,3.60
2022-11-19T11:43:59.530Z,3.50
2022-11-19T11:44:59.570Z,3.47
2022-11-19T11:45:59.570Z,3.55
2022-11-19T11:46:59.580Z,3.61
2022-11-19T11:47:59.600Z,3.62
2022-11-19T11:49:05.865Z,3.66
2022-11-19T11:49:59.633Z,3.70
2022-11-19T11:50:59.651Z,3.76
2022-11-19T11:51:59.667Z,3.61
2022-11-19T11:52:59.690Z,3.70
2022-11-19T11:53:59.762Z,3.69
2022-11-19T11:54:59.727Z,3.61
2022-11-19T11:55:59.734Z,3.58
2022-11-19T11:56:59.757Z,3.66
2022-11-19T11:57:59.769Z,3.68
2022-11-19T11:58:59.803Z,3.61
2022-11-19T11:59:59.808Z,3.61
2022-11-19T12:00:59.824Z,3.58
2022-11-19T12:01:59.913Z,3.51
2022-11-19T12:02:59.859Z,3.55
2022-11-19T12:03:59.870Z,3.65
2022-11-19T12:04:59.891Z,3.58
2022-11-19T12:05:59.906Z,3.55
2022-11-19T12:06:59.960Z,3.51
2022-11-19T12:07:59.943Z,3.51
2022-11-19T12:08:59.972Z,3.60
2022-11-19T12:09:59.978Z,3.55
2022-11-19T12:10:59.995Z,3.61
2022-11-19T12:12:00.012Z,3.54
2022-11-19T12:13:00.027Z,3.51
2022-11-19T12:14:00.046Z,3.48
2022-11-19T12:15:00.062Z,3.54
2022-11-19T12:16:00.091Z,3.52
2022-11-19T12:17:00.119Z,3.55
2022-11-19T12:18:00.115Z,3.47
2022-11-19T12:19:00.129Z,3.50
2022-11-19T12:20:00.153Z,3.47
2022-11-19T12:21:00.165Z,3.42
2022-11-19T12:22:00.189Z,3.50
2022-11-19T12:23:00.199Z,3.52
2022-11-19T12:24:00.217Z,3.48
2022-11-19T12:25:00.235Z,3.47
2022-11-19T12:26:00.254Z,3.62
2022-11-19T12:27:00.262Z,3.50
2022-11-19T12:28:00.287Z,3.60
2022-11-19T12:29:00.305Z,3.52
2022-11-19T12:30:01.171Z,3.50
2022-11-19T12:31:00.337Z,3.47
2022-11-19T12:32:00.631Z,3.61
2022-11-19T12:33:00.367Z,3.58
2022-11-19T12:34:00.386Z,3.65
2022-11-19T12:35:00.406Z,3.62
2022-11-19T12:36:00.419Z,3.54
2022-11-19T12:37:00.436Z,3.52
2022-11-19T12:38:00.456Z,3.50
2022-11-19T12:39:00.470Z,3.48
2022-11-19T12:40:00.491Z,3.43
2022-11-19T12:41:00.509Z,3.52
2022-11-19T12:42:00.532Z,3.47
2022-11-19T12:43:00.539Z,3.54
2022-11-19T12:44:00.561Z,3.42
2022-11-19T12:45:00.586Z,3.45
2022-11-19T12:46:00.600Z,3.50
2022-11-19T12:47:00.608Z,3.52
2022-11-19T12:48:00.644Z,3.50
2022-11-19T12:49:00.646Z,3.43
2022-11-19T12:50:00.659Z,3.39
2022-11-19T12:51:00.680Z,3.45
2022-11-19T12:52:00.695Z,3.40
2022-11-19T12:53:00.710Z,3.39
2022-11-19T12:54:00.727Z,3.43
2022-11-19T12:55:00.743Z,3.48
2022-11-19T12:56:00.760Z,3.47
2022-11-19T12:57:00.776Z,3.52
2022-11-19T12:58:00.793Z,3.48
2022-11-19T12:59:00.848Z,3.48
2022-11-19T13:00:00.828Z,3.57
2022-11-19T13:01:00.898Z,3.50
2022-11-19T13:02:00.864Z,3.52
2022-11-19T13:03:00.900Z,3.48
2022-11-19T13:04:00.903Z,3.62
2022-11-19T13:05:00.912Z,3.52
2022-11-19T13:06:00.930Z,3.60
2022-11-19T13:07:01.014Z,3.57
2022-11-19T13:08:00.966Z,3.47
2022-11-19T13:09:00.982Z,3.51
2022-11-19T13:10:00.998Z,3.51
2022-11-19T13:11:01.014Z,3.54
2022-11-19T13:12:01.032Z,3.52
2022-11-19T13:13:01.046Z,3.50
2022-11-19T13:14:01.077Z,3.54
2022-11-19T13:15:01.082Z,3.51
2022-11-19T13:16:01.099Z,3.43
2022-11-19T13:17:01.124Z,3.51
2022-11-19T13:18:01.135Z,3.57
2022-11-19T13:19:01.152Z,3.51
2022-11-19T13:20:01.168Z,3.52
2022-11-19T13:21:01.184Z,3.52
2022-11-19T13:22:01.201Z,3.47
2022-11-19T13:23:01.217Z,3.51
2022-11-19T13:24:01.233Z,3.52
2022-11-19T13:25:01.263Z,3.48
2022-11-19T13:26:01.275Z,3.52
2022-11-19T13:27:01.284Z,3.50
2022-11-19T13:28:01.305Z,3.43
2022-11-19T13:29:01.336Z,3.45
2022-11-19T13:30:01.353Z,3.54
2022-11-19T13:31:01.360Z,3.58
2022-11-19T13:32:01.372Z,3.54
2022-11-19T13:33:01.388Z,3.60
2022-11-19T13:34:01.405Z,3.57
2022-11-19T13:35:01.424Z,3.60
2022-11-19T13:36:01.438Z,3.52
2022-11-19T13:37:01.453Z,3.57
2022-11-19T13:38:01.472Z,3.57
2022-11-19T13:39:01.735Z,3.54
2022-11-19T13:40:01.505Z,3.52
2022-11-19T13:41:01.523Z,3.55
2022-11-19T13:42:01.544Z,3.52
2022-11-19T13:43:30.531Z,3.55